createdAt,value
2023-05-06T00:01:09.306Z,100932.09
2023-05-06T00:03:35.962Z,100924.63
2023-05-06T00:06:06.350Z,100941.75
2023-05-06T00:08:32.906Z,100945.06
2023-05-06T00:10:59.448Z,100939.53
2023-05-06T00:13:25.982Z,100931.69
2023-05-06T00:15:52.587Z,100934.56
2023-05-06T00:18:19.158Z,100937.25
2023-05-06T00:20:45.631Z,100932.53
2023-05-06T00:23:12.214Z,100930.66
2023-05-06T00:25:38.741Z,100931.50
2023-05-06T00:28:05.200Z,100937.03
2023-05-06T00:30:31.706Z,100934.81
2023-05-06T00:32:58.303Z,100931.09
2023-05-06T00:35:24.816Z,100931.31
2023-05-06T00:38:07.712Z,100919.34
2023-05-06T00:40:34.311Z,100928.00
2023-05-06T00:43:00.817Z,100924.88
2023-05-06T00:45:27.416Z,100911.47
2023-05-06T00:47:54.423Z,100916.19
2023-05-06T00:50:21.761Z,100911.41
2023-05-06T00:52:49.231Z,100915.94
2023-05-06T00:55:16.122Z,100909.78
2023-05-06T00:57:42.701Z,100904.00
2023-05-06T01:00:11.514Z,100908.47
2023-05-06T01:02:46.304Z,100900.63
2023-05-06T01:05:14.162Z,100901.22
2023-05-06T01:07:58.801Z,100890.47
2023-05-06T01:10:35.598Z,100885.44
2023-05-06T01:13:07.158Z,100892.44
2023-05-06T01:15:43.183Z,100878.13
2023-05-06T01:18:13.686Z,100888.91
2023-05-06T01:20:42.227Z,100898.13
2023-05-06T01:23:15.061Z,100892.13
2023-05-06T01:25:41.966Z,100899.91
2023-05-06T01:28:11.421Z,100905.22
2023-05-06T01:30:49.879Z,100907.09
2023-05-06T01:33:29.480Z,100901.31
2023-05-06T01:36:08.785Z,100897.41
2023-05-06T01:39:01.226Z,100881.91
2023-05-06T01:41:28.220Z,100908.75
2023-05-06T01:43:56.633Z,100905.44
2023-05-06T01:46:24.744Z,100914.41
2023-05-06T01:48:54.218Z,100913.31
2023-05-06T01:51:22.122Z,100914.34
2023-05-06T01:53:48.569Z,100918.84
2023-05-06T01:56:15.110Z,100921.53
2023-05-06T01:58:41.533Z,100914.50
2023-05-06T02:01:08.003Z,100911.38
2023-05-06T02:03:34.582Z,100915.91
2023-05-06T02:06:01.095Z,100919.06
2023-05-06T02:08:27.511Z,100921.84
2023-05-06T02:10:54.130Z,100920.22
2023-05-06T02:13:20.740Z,100928.22
2023-05-06T02:15:47.300Z,100930.31
2023-05-06T02:18:13.700Z,100922.25
2023-05-06T02:20:40.270Z,100929.69
2023-05-06T02:23:06.798Z,100918.34
2023-05-06T02:25:33.521Z,100934.81
2023-05-06T02:27:59.956Z,100928.09
2023-05-06T02:30:30.489Z,100926.56
2023-05-06T02:32:57.552Z,100931.25
2023-05-06T02:35:24.565Z,100935.41
2023-05-06T02:37:51.116Z,100933.75
2023-05-06T02:40:17.607Z,100928.97
2023-05-06T02:42:44.148Z,100931.25
2023-05-06T02:45:11.411Z,100934.75
2023-05-06T02:47:38.209Z,100934.28
2023-05-06T02:50:04.933Z,100925.47
2023-05-06T02:52:32.521Z,100925.22
2023-05-06T02:54:59.097Z,100925.22
2023-05-06T02:57:25.675Z,100924.94
2023-05-06T02:59:52.096Z,100932.31
2023-05-06T03:02:18.510Z,100927.16
2023-05-06T03:04:44.992Z,100924.69
2023-05-06T03:07:12.609Z,100925.78
2023-05-06T03:09:39.467Z,100921.44
2023-05-06T03:12:06.219Z,100925.31
2023-05-06T03:14:33.777Z,100906.38
2023-05-06T03:17:00.463Z,100920.38
2023-05-06T03:19:27.004Z,100911.06
2023-05-06T03:21:53.501Z,100909.34
2023-05-06T03:24:20.070Z,100914.31
2023-05-06T03:26:46.581Z,100917.25
2023-05-06T03:29:13.116Z,100907.75
2023-05-06T03:31:41.986Z,100916.59
2023-05-06T03:34:08.585Z,100907.94
2023-05-06T03:36:35.050Z,100906.09
2023-05-06T03:39:01.747Z,100907.47
2023-05-06T03:41:28.223Z,100908.50
2023-05-06T03:43:55.768Z,100908.03
2023-05-06T03:46:22.557Z,100919.19
2023-05-06T03:48:49.130Z,100917.13
2023-05-06T03:51:15.693Z,100926.63
2023-05-06T03:53:42.292Z,100923.41
2023-05-06T03:56:08.915Z,100920.53
2023-05-06T03:58:35.875Z,100923.13
2023-05-06T04:01:02.360Z,100932.41
2023-05-06T04:03:28.966Z,100922.84
2023-05-06T04:05:55.638Z,100926.41
2023-05-06T04:08:22.134Z,100919.22
2023-05-06T04:10:48.710Z,100926.03
2023-05-06T04:13:15.446Z,100929.19
2023-05-06T04:15:42.587Z,100933.13
2023-05-06T04:18:09.189Z,100930.47
2023-05-06T04:20:35.843Z,100928.44
2023-05-06T04:23:02.392Z,100920.53
2023-05-06T04:25:28.877Z,100928.00
2023-05-06T04:27:55.461Z,100930.31
2023-05-06T04:30:22.562Z,100933.25
2023-05-06T04:32:49.108Z,100936.56
2023-05-06T04:35:16.290Z,100932.88
2023-05-06T04:37:43.498Z,100935.81
2023-05-06T04:40:12.966Z,100940.22
2023-05-06T04:42:39.600Z,100937.84
2023-05-06T04:45:06.593Z,100951.44
2023-05-06T04:47:33.946Z,100947.56
2023-05-06T04:50:00.359Z,100950.69
2023-05-06T04:52:26.885Z,100950.69
2023-05-06T04:54:53.327Z,100948.47
2023-05-06T04:57:19.754Z,100934.03
2023-05-06T04:59:46.635Z,100953.25
2023-05-06T05:02:13.115Z,100951.88
2023-05-06T05:04:39.721Z,100951.69
2023-05-06T05:07:07.356Z,100955.44
2023-05-06T05:09:34.944Z,100954.59
2023-05-06T05:12:04.368Z,100958.38
2023-05-06T05:14:30.862Z,100959.38
2023-05-06T05:16:57.483Z,100959.56
2023-05-06T05:19:23.976Z,100963.16
2023-05-06T05:21:50.526Z,100964.44
2023-05-06T05:24:16.962Z,100966.72
2023-05-06T05:26:43.565Z,100966.53
2023-05-06T05:29:10.140Z,100969.84
2023-05-06T05:31:36.701Z,100969.00
2023-05-06T05:34:03.262Z,100975.84
2023-05-06T05:36:29.745Z,100971.94
2023-05-06T05:38:57.141Z,100964.19
2023-05-06T05:41:23.674Z,100963.81
2023-05-06T05:43:50.110Z,100967.81
2023-05-06T05:46:17.062Z,100968.34
2023-05-06T05:48:44.575Z,100971.50
2023-05-06T05:51:11.164Z,100965.66
2023-05-06T05:53:37.892Z,100968.25
2023-05-06T05:56:04.622Z,100969.78
2023-05-06T05:58:31.017Z,100974.28
2023-05-06T06:00:57.440Z,100979.75
2023-05-06T06:03:24.015Z,100976.38
2023-05-06T06:05:52.882Z,100967.28
2023-05-06T06:08:19.463Z,100967.94
2023-05-06T06:10:46.216Z,100971.84
2023-05-06T06:13:13.354Z,100968.84
2023-05-06T06:15:40.402Z,100947.91
2023-05-06T06:18:08.781Z,100960.09
2023-05-06T06:20:35.900Z,100961.75
2023-05-06T06:23:02.449Z,100947.84
2023-05-06T06:25:29.076Z,100961.72
2023-05-06T06:27:57.165Z,100944.59
2023-05-06T06:30:24.191Z,100962.41
2023-05-06T06:32:52.936Z,100966.94
2023-05-06T06:35:26.107Z,100962.84
2023-05-06T06:37:52.747Z,100968.63
2023-05-06T06:40:19.955Z,100968.44
2023-05-06T06:42:49.386Z,100965.59
2023-05-06T06:45:15.894Z,100968.47
2023-05-06T06:47:42.458Z,100977.13
2023-05-06T06:50:09.843Z,100967.25
2023-05-06T06:52:36.282Z,100965.59
2023-05-06T06:55:03.169Z,100963.56
2023-05-06T06:57:29.626Z,100965.03
2023-05-06T06:59:56.270Z,100963.59
2023-05-06T07:02:22.996Z,100971.03
2023-05-06T07:04:49.523Z,100956.59
2023-05-06T07:07:16.025Z,100983.44
2023-05-06T07:09:44.181Z,100973.94
2023-05-06T07:12:10.730Z,100980.16
2023-05-06T07:14:37.200Z,100971.50
2023-05-06T07:17:03.701Z,100987.63
2023-05-06T07:19:31.559Z,100982.06
2023-05-06T07:21:58.075Z,100974.84
2023-05-06T07:24:24.688Z,100978.16
2023-05-06T07:26:51.164Z,100983.06
2023-05-06T07:29:17.695Z,100989.91
2023-05-06T07:31:44.285Z,100977.72
2023-05-06T07:34:11.055Z,100991.13
2023-05-06T07:36:40.820Z,100988.00
2023-05-06T07:39:07.899Z,100989.44
2023-05-06T07:41:34.537Z,100969.44
2023-05-06T07:44:01.264Z,100976.41
2023-05-06T07:46:27.874Z,100983.59
2023-05-06T07:48:54.541Z,100983.31
2023-05-06T07:51:21.712Z,100981.88
2023-05-06T07:53:48.149Z,100978.56
2023-05-06T07:56:14.662Z,100974.03
2023-05-06T07:58:41.209Z,100986.09
2023-05-06T08:01:07.743Z,100984.06
2023-05-06T08:03:35.667Z,100981.41
2023-05-06T08:06:02.375Z,100980.22
2023-05-06T08:08:29.177Z,100989.84
2023-05-06T08:10:56.118Z,100978.81
2023-05-06T08:13:22.724Z,100980.81
2023-05-06T08:15:49.571Z,100987.25
2023-05-06T08:18:22.477Z,100991.03
2023-05-06T08:20:49.712Z,100990.38
2023-05-06T08:23:16.289Z,100991.16
2023-05-06T08:25:43.006Z,100988.41
2023-05-06T08:28:09.464Z,101000.19
2023-05-06T08:30:36.638Z,100988.88
2023-05-06T08:33:03.331Z,100992.72
2023-05-06T08:35:31.041Z,101002.22
2023-05-06T08:37:57.442Z,100995.63
2023-05-06T08:40:26.966Z,100985.81
2023-05-06T08:42:56.045Z,100992.75
2023-05-06T08:45:23.597Z,100995.34
2023-05-06T08:47:50.097Z,100991.47
2023-05-06T08:50:16.720Z,100989.81
2023-05-06T08:52:43.916Z,100988.47
2023-05-06T08:55:11.556Z,100994.63
2023-05-06T08:57:38.495Z,100979.81
2023-05-06T09:00:05.783Z,100985.88
2023-05-06T09:02:32.389Z,100979.84
2023-05-06T09:04:59.807Z,100986.13
2023-05-06T09:07:26.452Z,100986.56
2023-05-06T09:09:52.918Z,100988.06
2023-05-06T09:12:21.377Z,100989.50
2023-05-06T09:14:50.158Z,100985.50
2023-05-06T09:17:24.357Z,100983.53
2023-05-06T09:19:54.858Z,100988.91
2023-05-06T09:22:22.309Z,100984.34
2023-05-06T09:24:57.998Z,100984.00
2023-05-06T09:27:29.509Z,100988.78
2023-05-06T09:30:05.365Z,100984.09
2023-05-06T09:32:32.841Z,100977.16
2023-05-06T09:34:59.650Z,100980.94
2023-05-06T09:37:27.272Z,100977.66
2023-05-06T09:39:56.363Z,100982.56
2023-05-06T09:42:25.513Z,100975.19
2023-05-06T09:44:54.780Z,100963.78
2023-05-06T09:47:22.865Z,100970.22
2023-05-06T09:49:49.431Z,100962.69
2023-05-06T09:52:16.365Z,100957.88
2023-05-06T09:54:43.288Z,100970.34
2023-05-06T09:57:10.487Z,100962.84
2023-05-06T09:59:38.262Z,100955.88
2023-05-06T10:02:04.865Z,100956.53
2023-05-06T10:04:35.059Z,100961.34
2023-05-06T10:07:03.263Z,100943.50
2023-05-06T10:09:30.002Z,100966.59
2023-05-06T10:11:57.356Z,100963.13
2023-05-06T10:14:23.778Z,100963.47
2023-05-06T10:16:50.534Z,100959.63
2023-05-06T10:19:21.077Z,100956.22
2023-05-06T10:21:54.052Z,100959.53
2023-05-06T10:24:29.202Z,100957.84
2023-05-06T10:26:56.491Z,100955.59
2023-05-06T10:29:26.061Z,100951.25
2023-05-06T10:31:57.326Z,100927.97
2023-05-06T10:34:25.609Z,100948.94
2023-05-06T10:36:57.542Z,100927.03
2023-05-06T10:39:24.902Z,100942.66
2023-05-06T10:41:51.404Z,100946.00
2023-05-06T10:44:17.882Z,100945.94
2023-05-06T10:46:59.726Z,100946.50
2023-05-06T10:49:27.036Z,100945.66
2023-05-06T10:52:14.634Z,100934.06
2023-05-06T10:54:49.546Z,100936.44
2023-05-06T10:57:16.159Z,100937.63
2023-05-06T10:59:47.132Z,100927.59
2023-05-06T11:02:14.013Z,100931.38
2023-05-06T11:04:40.848Z,100925.47
2023-05-06T11:07:10.663Z,100925.97
2023-05-06T11:10:06.167Z,100934.28
2023-05-06T11:12:53.638Z,100931.25
2023-05-06T11:15:26.795Z,100931.06
2023-05-06T11:17:56.769Z,100929.91
2023-05-06T11:20:25.276Z,100924.41
2023-05-06T11:22:52.759Z,100925.06
2023-05-06T11:25:42.508Z,100918.91
2023-05-06T11:28:11.756Z,100922.88
2023-05-06T11:30:41.563Z,100905.06
2023-05-06T11:33:17.075Z,100916.94
2023-05-06T11:35:45.107Z,100913.69
2023-05-06T11:38:12.141Z,100915.47
2023-05-06T11:40:41.559Z,100907.44
2023-05-06T11:43:12.488Z,100910.97
2023-05-06T11:45:47.628Z,100906.22
2023-05-06T11:48:18.124Z,100919.47
2023-05-06T11:50:47.341Z,100917.78
2023-05-06T11:53:16.571Z,100904.00
2023-05-06T11:55:44.462Z,100902.84
2023-05-06T11:58:24.981Z,100905.16
2023-05-06T12:01:01.779Z,100912.81
2023-05-06T12:03:31.275Z,100907.03
2023-05-06T12:05:58.669Z,100907.41
2023-05-06T12:08:33.636Z,100900.41
2023-05-06T12:11:05.357Z,100914.16
2023-05-06T12:13:32.616Z,100905.06
2023-05-06T12:16:00.520Z,100914.31
2023-05-06T12:18:27.832Z,100911.38
2023-05-06T12:20:55.163Z,100917.13
2023-05-06T12:23:22.145Z,100914.09
2023-05-06T12:26:09.202Z,100918.94
2023-05-06T12:28:36.826Z,100901.88
2023-05-06T12:31:23.355Z,100902.84
2023-05-06T12:33:50.553Z,100905.06
2023-05-06T12:36:19.087Z,100902.53
2023-05-06T12:38:58.856Z,100905.16
2023-05-06T12:41:44.559Z,100902.44
2023-05-06T12:44:50.604Z,100904.84
2023-05-06T12:47:24.914Z,100906.44
2023-05-06T12:49:55.143Z,100908.50
2023-05-06T12:52:23.611Z,100917.03
2023-05-06T12:54:52.833Z,100909.63
2023-05-06T12:57:19.619Z,100907.31
2023-05-06T12:59:46.248Z,100905.31
2023-05-06T13:02:13.469Z,100911.38
2023-05-06T13:04:40.785Z,100910.47
2023-05-06T13:07:07.458Z,100906.31
2023-05-06T13:09:34.055Z,100903.59
2023-05-06T13:12:02.364Z,100900.31
2023-05-06T13:14:28.808Z,100907.88
2023-05-06T13:16:55.272Z,100897.69
2023-05-06T13:19:32.347Z,100899.06
2023-05-06T13:22:00.449Z,100896.97
2023-05-06T13:24:27.195Z,100899.44
2023-05-06T13:26:53.763Z,100905.81
2023-05-06T13:29:20.348Z,100900.22
2023-05-06T13:31:46.792Z,100906.13
2023-05-06T13:34:13.226Z,100909.91
2023-05-06T13:36:39.739Z,100911.03
2023-05-06T13:39:06.448Z,100908.44
2023-05-06T13:41:33.034Z,100904.50
2023-05-06T13:43:59.528Z,100905.97
2023-05-06T13:46:27.283Z,100910.19
2023-05-06T13:48:53.975Z,100909.53
2023-05-06T13:51:20.753Z,100913.31
2023-05-06T13:53:47.284Z,100904.88
2023-05-06T13:56:13.818Z,100916.66
2023-05-06T13:58:40.281Z,100917.25
2023-05-06T14:01:07.282Z,100917.94
2023-05-06T14:03:33.860Z,100915.16
2023-05-06T14:06:01.367Z,100913.44
2023-05-06T14:08:27.849Z,100901.44
2023-05-06T14:10:54.401Z,100908.25
2023-05-06T14:13:21.023Z,100907.91
2023-05-06T14:15:47.646Z,100914.72
2023-05-06T14:18:14.333Z,100914.00
2023-05-06T14:20:41.307Z,100906.13
2023-05-06T14:23:08.032Z,100909.31
2023-05-06T14:25:34.741Z,100907.19
2023-05-06T14:28:01.279Z,100909.91
2023-05-06T14:30:27.795Z,100906.22
2023-05-06T14:32:54.340Z,100902.88
2023-05-06T14:35:20.975Z,100905.78
2023-05-06T14:37:47.443Z,100897.03
2023-05-06T14:40:15.470Z,100899.84
2023-05-06T14:42:41.992Z,100901.31
2023-05-06T14:45:09.089Z,100904.50
2023-05-06T14:47:35.945Z,100899.53
2023-05-06T14:50:02.615Z,100898.88
2023-05-06T14:52:29.091Z,100906.16
2023-05-06T14:54:55.616Z,100901.78
2023-05-06T14:57:22.474Z,100896.16
2023-05-06T14:59:50.526Z,100908.13
2023-05-06T15:02:16.968Z,100905.88
2023-05-06T15:04:43.467Z,100904.44
2023-05-06T15:07:10.966Z,100905.59
2023-05-06T15:09:39.951Z,100909.31
2023-05-06T15:12:06.811Z,100908.94
2023-05-06T15:14:33.258Z,100905.78
2023-05-06T15:16:59.756Z,100906.53
2023-05-06T15:19:26.334Z,100901.25
2023-05-06T15:21:52.709Z,100902.94
2023-05-06T15:24:19.193Z,100906.13
2023-05-06T15:26:45.898Z,100900.84
2023-05-06T15:29:12.437Z,100901.09
2023-05-06T15:31:40.900Z,100904.03
2023-05-06T15:34:09.520Z,100896.72
2023-05-06T15:36:36.106Z,100886.53
2023-05-06T15:39:03.194Z,100898.38
2023-05-06T15:41:32.423Z,100879.28
2023-05-06T15:44:00.430Z,100894.50
2023-05-06T15:46:28.029Z,100896.63
2023-05-06T15:49:09.037Z,100900.75
2023-05-06T15:51:40.974Z,100891.34
2023-05-06T15:54:07.454Z,100903.81
2023-05-06T15:56:39.285Z,100893.25
2023-05-06T15:59:08.333Z,100899.47
2023-05-06T16:02:04.647Z,100904.06
2023-05-06T16:04:22.038Z,100910.38
2023-05-06T16:06:49.484Z,100913.09
2023-05-06T16:09:16.008Z,100911.09
2023-05-06T16:11:42.424Z,100912.97
2023-05-06T16:14:08.925Z,100913.81
2023-05-06T16:16:35.640Z,100909.94
2023-05-06T16:19:02.224Z,100910.41
2023-05-06T16:21:28.734Z,100913.13
2023-05-06T16:23:55.247Z,100910.91
2023-05-06T16:26:22.136Z,100900.91
2023-05-06T16:28:48.598Z,100912.88
2023-05-06T16:31:15.157Z,100914.41
2023-05-06T16:33:41.628Z,100909.78
2023-05-06T16:36:08.327Z,100911.31
2023-05-06T16:38:34.774Z,100912.81
2023-05-06T16:41:01.367Z,100911.66
2023-05-06T16:43:27.896Z,100911.06
2023-05-06T16:45:54.393Z,100907.41
2023-05-06T16:48:21.179Z,100912.69
2023-05-06T16:50:47.788Z,100909.88
2023-05-06T16:53:15.822Z,100913.25
2023-05-06T16:55:47.528Z,100909.97
2023-05-06T16:58:14.199Z,100910.69
2023-05-06T17:00:41.521Z,100906.88
2023-05-06T17:03:08.619Z,100910.88
2023-05-06T17:05:35.279Z,100906.63
2023-05-06T17:08:03.513Z,100916.81
2023-05-06T17:10:30.111Z,100919.75
2023-05-06T17:12:58.327Z,100915.50
2023-05-06T17:15:25.784Z,100922.84
2023-05-06T17:17:52.610Z,100922.34
2023-05-06T17:20:22.826Z,100925.00
2023-05-06T17:22:49.838Z,100909.81
2023-05-06T17:25:16.578Z,100926.94
2023-05-06T17:27:43.106Z,100929.50
2023-05-06T17:30:09.954Z,100934.50
2023-05-06T17:32:36.677Z,100932.28
2023-05-06T17:35:03.574Z,100930.03
2023-05-06T17:37:31.567Z,100930.03
2023-05-06T17:39:58.209Z,100930.44
2023-05-06T17:42:24.835Z,100932.09
2023-05-06T17:44:51.338Z,100937.47
2023-05-06T17:47:18.171Z,100937.06
2023-05-06T17:49:45.661Z,100934.78
2023-05-06T17:52:12.280Z,100926.56
2023-05-06T17:54:38.831Z,100931.56
2023-05-06T17:57:05.346Z,100936.28
2023-05-06T17:59:32.170Z,100944.41
2023-05-06T18:01:58.968Z,100947.72
2023-05-06T18:04:25.567Z,100951.06
2023-05-06T18:06:52.263Z,100945.59
2023-05-06T18:09:19.538Z,100956.13
2023-05-06T18:11:46.336Z,100956.41
2023-05-06T18:14:13.065Z,100959.75
2023-05-06T18:16:39.634Z,100961.25
2023-05-06T18:19:06.225Z,100961.00
2023-05-06T18:21:34.566Z,100970.19
2023-05-06T18:24:15.414Z,100967.53
2023-05-06T18:26:44.478Z,100967.38
2023-05-06T18:29:12.325Z,100968.47
2023-05-06T18:31:39.110Z,100981.31
2023-05-06T18:34:05.696Z,100980.13
2023-05-06T18:36:32.636Z,100974.38
2023-05-06T18:38:59.173Z,100970.69
2023-05-06T18:41:25.747Z,100978.16
2023-05-06T18:43:52.338Z,100986.00
2023-05-06T18:46:20.075Z,100984.16
2023-05-06T18:48:46.605Z,100980.00
2023-05-06T18:51:15.229Z,100961.06
2023-05-06T18:53:42.152Z,100974.69
2023-05-06T18:56:09.253Z,100972.03
2023-05-06T18:58:37.592Z,100965.03
2023-05-06T19:01:05.185Z,100970.41
2023-05-06T19:03:34.381Z,100966.66
2023-05-06T19:06:03.189Z,100974.72
2023-05-06T19:08:31.162Z,100975.97
2023-05-06T19:11:01.571Z,100969.16
2023-05-06T19:13:28.686Z,100971.03
2023-05-06T19:15:57.098Z,100956.00
2023-05-06T19:18:23.639Z,100974.16
2023-05-06T19:20:51.418Z,100968.78
2023-05-06T19:23:18.517Z,100976.84
2023-05-06T19:25:44.955Z,100972.88
2023-05-06T19:28:12.108Z,100985.72
2023-05-06T19:30:38.603Z,100974.16
2023-05-06T19:33:05.196Z,100987.44
2023-05-06T19:35:31.839Z,100978.97
2023-05-06T19:37:58.731Z,100979.00
2023-05-06T19:40:25.515Z,100982.50
2023-05-06T19:42:52.308Z,100985.41
2023-05-06T19:45:19.518Z,100988.69
2023-05-06T19:47:46.418Z,100983.78
2023-05-06T19:50:13.247Z,100981.72
2023-05-06T19:52:40.555Z,100981.53
2023-05-06T19:55:07.548Z,100980.50
2023-05-06T19:57:34.127Z,100980.50
2023-05-06T20:00:05.138Z,100982.56
2023-05-06T20:02:32.841Z,100975.78
2023-05-06T20:05:00.475Z,100983.03
2023-05-06T20:07:27.444Z,100969.38
2023-05-06T20:09:55.934Z,100973.53
2023-05-06T20:12:23.618Z,100964.25
2023-05-06T20:14:50.255Z,100972.50
2023-05-06T20:17:16.955Z,100968.38
2023-05-06T20:19:44.966Z,100962.41
2023-05-06T20:22:11.815Z,100964.47
2023-05-06T20:24:38.323Z,100965.50
2023-05-06T20:27:04.920Z,100959.50
2023-05-06T20:29:31.493Z,100961.00
2023-05-06T20:31:58.265Z,100968.41
2023-05-06T20:34:24.919Z,100960.78
2023-05-06T20:36:54.211Z,100966.53
2023-05-06T20:39:22.016Z,100965.13
2023-05-06T20:41:48.526Z,100952.75
2023-05-06T20:44:15.243Z,100965.56
2023-05-06T20:46:42.704Z,100961.00
2023-05-06T20:49:09.117Z,100961.81
2023-05-06T20:51:35.628Z,100961.19
2023-05-06T20:54:02.030Z,100965.94
2023-05-06T20:56:28.809Z,100962.84
2023-05-06T20:58:55.921Z,100964.72
2023-05-06T21:01:23.950Z,100943.88
2023-05-06T21:03:50.685Z,100960.38
2023-05-06T21:06:18.619Z,100951.31
2023-05-06T21:08:46.478Z,100953.19
2023-05-06T21:11:13.318Z,100951.50
2023-05-06T21:13:40.133Z,100953.19
2023-05-06T21:16:06.666Z,100941.41
2023-05-06T21:18:33.217Z,100944.09
2023-05-06T21:20:59.868Z,100946.34
2023-05-06T21:23:26.551Z,100944.28
2023-05-06T21:25:53.071Z,100942.03
2023-05-06T21:28:19.754Z,100949.25
2023-05-06T21:30:46.282Z,100946.56
2023-05-06T21:33:12.741Z,100952.75
2023-05-06T21:35:39.218Z,100956.91
2023-05-06T21:38:05.628Z,100956.91
2023-05-06T21:40:32.139Z,100962.47
2023-05-06T21:42:58.598Z,100962.47
2023-05-06T21:45:25.155Z,100954.63
2023-05-06T21:47:51.679Z,100959.78
2023-05-06T21:50:18.154Z,100963.47
2023-05-06T21:52:44.569Z,100958.31
2023-05-06T21:55:11.301Z,100953.78
2023-05-06T21:57:38.773Z,100955.00
2023-05-06T22:00:11.759Z,100950.28
2023-05-06T22:02:40.007Z,100960.00
2023-05-06T22:05:08.154Z,100955.00
2023-05-06T22:07:35.769Z,100956.06
2023-05-06T22:10:02.438Z,100953.78
2023-05-06T22:12:28.994Z,100953.78
2023-05-06T22:14:55.921Z,100953.38
2023-05-06T22:17:22.423Z,100930.69
2023-05-06T22:19:49.067Z,100948.44
2023-05-06T22:22:16.148Z,100939.56
2023-05-06T22:24:42.693Z,100944.09
2023-05-06T22:27:09.126Z,100943.69
2023-05-06T22:29:35.669Z,100948.22
2023-05-06T22:32:02.313Z,100953.00
2023-05-06T22:34:28.804Z,100927.38
2023-05-06T22:36:57.601Z,100938.31
2023-05-06T22:39:24.837Z,100931.13
2023-05-06T22:41:51.380Z,100935.66
2023-05-06T22:44:17.811Z,100946.38
2023-05-06T22:46:44.482Z,100946.38
2023-05-06T22:49:10.953Z,100944.09
2023-05-06T22:51:37.420Z,100944.53
2023-05-06T22:54:03.858Z,100939.94
2023-05-06T22:56:30.352Z,100944.13
2023-05-06T22:58:56.880Z,100941.44
2023-05-06T23:01:25.155Z,100942.41
2023-05-06T23:03:51.902Z,100945.09
2023-05-06T23:06:18.624Z,100938.94
2023-05-06T23:08:45.045Z,100944.28
2023-05-06T23:11:11.541Z,100942.25
2023-05-06T23:13:38.159Z,100942.66
2023-05-06T23:16:05.257Z,100944.31
2023-05-06T23:18:31.877Z,100946.78
2023-05-06T23:20:58.352Z,100944.53
2023-05-06T23:23:24.761Z,100926.97
2023-05-06T23:25:51.259Z,100930.06
2023-05-06T23:28:17.696Z,100931.69
2023-05-06T23:30:44.110Z,100938.94
2023-05-06T23:33:10.741Z,100945.72
2023-05-06T23:35:37.230Z,100942.41
2023-05-06T23:38:03.779Z,100939.53
2023-05-06T23:40:30.413Z,100935.84
2023-05-06T23:42:56.890Z,100941.19
2023-05-06T23:45:25.677Z,100939.75
2023-05-06T23:47:52.968Z,100937.06
2023-05-06T23:50:19.850Z,100945.72
2023-05-06T23:52:46.364Z,100947.56
2023-05-06T23:55:13.304Z,100943.88
2023-05-06T23:57:40.026Z,100947.16
